Armour, South Dakota
Current Conditions -  °F | °C
As of 12:53 PM on Saturday 25 Oct 2014 (Local Time) from KMHE Reporting Station
Clear Clear  
Wind Chill: 65°   Ceiling: Unl
Heat Index: 65°   Visibility: 10mi
Dew Point: 31°   Wind: 6mph
Humidity: 28%   Direction: NA
Pressure: 30.16"   Gusts: NA
Location:  43.32°N, 98.35°W
Report Text: KMHE 251753Z AUTO VRB05KT 10SM CLR 18/M01 A3016 RMK AO2 SLP214 6//// T01831006 10189 20050 $
Loading
Personal Weather Stations






























Interactive Weather Map
Tropical Storm Tracking
New forecast layout! Learn more

10-Day Weather Forecast

Advertisements
Track Severe Weather on mobile